sensor_id;sensor_type;location;lat;lon;timestamp;pressure;altitude;pressure_sealevel;temperature;humidity
52719;BME280;38616;42.140;24.760;2022-12-15T00:01:01;98991.75;;;4.68;67.96
52719;BME280;38616;42.140;24.760;2022-12-15T00:03:45;98985.78;;;4.98;66.83
52719;BME280;38616;42.140;24.760;2022-12-15T00:06:29;98980.88;;;4.90;66.28
52719;BME280;38616;42.140;24.760;2022-12-15T00:09:12;98968.16;;;4.80;66.17
52719;BME280;38616;42.140;24.760;2022-12-15T00:11:56;98969.75;;;4.43;66.83
52719;BME280;38616;42.140;24.760;2022-12-15T00:14:40;98968.91;;;4.38;67.25
52719;BME280;38616;42.140;24.760;2022-12-15T00:17:24;98960.75;;;4.27;68.26
52719;BME280;38616;42.140;24.760;2022-12-15T00:20:08;98980.56;;;4.21;68.50
52719;BME280;38616;42.140;24.760;2022-12-15T00:22:52;98987.34;;;4.02;68.58
52719;BME280;38616;42.140;24.760;2022-12-15T00:25:36;98966.91;;;4.28;67.96
52719;BME280;38616;42.140;24.760;2022-12-15T00:28:20;98968.03;;;4.65;67.00
52719;BME280;38616;42.140;24.760;2022-12-15T00:31:04;98965.72;;;4.73;66.71
52719;BME280;38616;42.140;24.760;2022-12-15T00:33:48;98963.91;;;4.84;67.34
52719;BME280;38616;42.140;24.760;2022-12-15T00:36:32;98957.00;;;4.99;65.70
52719;BME280;38616;42.140;24.760;2022-12-15T00:39:16;98968.81;;;4.93;65.92
52719;BME280;38616;42.140;24.760;2022-12-15T00:41:41;98968.81;;;4.93;65.72
52719;BME280;38616;42.140;24.760;2022-12-15T00:44:07;98964.22;;;4.93;65.87
52719;BME280;38616;42.140;24.760;2022-12-15T00:46:32;98949.97;;;4.93;66.31
52719;BME280;38616;42.140;24.760;2022-12-15T00:49:28;98956.38;;;5.29;65.25
52719;BME280;38616;42.140;24.760;2022-12-15T00:52:13;98987.75;;;4.70;66.11
52719;BME280;38616;42.140;24.760;2022-12-15T00:54:58;98980.41;;;4.33;67.90
52719;BME280;38616;42.140;24.760;2022-12-15T00:57:42;98944.22;;;4.46;67.90
52719;BME280;38616;42.140;24.760;2022-12-15T01:00:27;98923.13;;;4.65;67.54
52719;BME280;38616;42.140;24.760;2022-12-15T01:03:13;98928.31;;;4.77;66.55
52719;BME280;38616;42.140;24.760;2022-12-15T01:05:58;98955.34;;;4.93;65.78
52719;BME280;38616;42.140;24.760;2022-12-15T01:08:43;98950.25;;;4.96;66.79
52719;BME280;38616;42.140;24.760;2022-12-15T01:11:27;98930.88;;;4.99;66.96
52719;BME280;38616;42.140;24.760;2022-12-15T01:14:11;98921.66;;;4.85;67.26
52719;BME280;38616;42.140;24.760;2022-12-15T01:16:56;98923.34;;;5.01;67.03
52719;BME280;38616;42.140;24.760;2022-12-15T01:19:39;98910.66;;;4.92;67.44
52719;BME280;38616;42.140;24.760;2022-12-15T01:22:23;98931.97;;;5.03;67.25
52719;BME280;38616;42.140;24.760;2022-12-15T01:24:49;98932.84;;;5.09;66.81
52719;BME280;38616;42.140;24.760;2022-12-15T01:27:14;98913.94;;;4.99;67.31
52719;BME280;38616;42.140;24.760;2022-12-15T01:29:39;98916.25;;;5.28;66.59
52719;BME280;38616;42.140;24.760;2022-12-15T01:32:05;98943.94;;;5.23;66.96
52719;BME280;38616;42.140;24.760;2022-12-15T01:34:30;98951.69;;;5.09;66.66
52719;BME280;38616;42.140;24.760;2022-12-15T01:36:55;98937.28;;;4.93;67.64
52719;BME280;38616;42.140;24.760;2022-12-15T01:39:21;98944.50;;;4.82;68.16
52719;BME280;38616;42.140;24.760;2022-12-15T01:41:46;98937.25;;;4.88;67.87
52719;BME280;38616;42.140;24.760;2022-12-15T01:44:18;98939.72;;;4.90;67.85
52719;BME280;38616;42.140;24.760;2022-12-15T01:46:44;98936.25;;;4.99;67.57
52719;BME280;38616;42.140;24.760;2022-12-15T01:49:15;98945.44;;;5.03;66.96
52719;BME280;38616;42.140;24.760;2022-12-15T01:51:46;98943.78;;;4.97;66.50
52719;BME280;38616;42.140;24.760;2022-12-15T01:54:22;98953.75;;;4.97;65.52
52719;BME280;38616;42.140;24.760;2022-12-15T01:56:54;98924.88;;;4.82;65.89
52719;BME280;38616;42.140;24.760;2022-12-15T01:59:26;98945.06;;;4.84;65.51
52719;BME280;38616;42.140;24.760;2022-12-15T02:01:53;98954.78;;;4.53;66.76
52719;BME280;38616;42.140;24.760;2022-12-15T02:04:20;98966.31;;;4.53;67.60
52719;BME280;38616;42.140;24.760;2022-12-15T02:06:47;98969.84;;;4.54;67.72
52719;BME280;38616;42.140;24.760;2022-12-15T02:09:12;98977.16;;;4.04;68.90
52719;BME280;38616;42.140;24.760;2022-12-15T02:11:43;98958.06;;;3.78;70.07
52719;BME280;38616;42.140;24.760;2022-12-15T02:14:19;98994.00;;;3.94;69.85
52719;BME280;38616;42.140;24.760;2022-12-15T02:28:12;99015.16;;;3.90;69.97
52719;BME280;38616;42.140;24.760;2022-12-15T02:30:45;99017.69;;;3.97;69.71
52719;BME280;38616;42.140;24.760;2022-12-15T02:33:35;99010.47;;;4.03;69.47
52719;BME280;38616;42.140;24.760;2022-12-15T02:36:11;98992.34;;;4.15;68.71
52719;BME280;38616;42.140;24.760;2022-12-15T02:38:40;98987.91;;;4.04;69.10
52719;BME280;38616;42.140;24.760;2022-12-15T02:41:35;98984.94;;;4.27;67.61
52719;BME280;38616;42.140;24.760;2022-12-15T02:57:19;98997.75;;;3.93;68.37
52719;BME280;38616;42.140;24.760;2022-12-15T02:59:58;99001.59;;;3.80;68.38
52719;BME280;38616;42.140;24.760;2022-12-15T03:02:28;99008.25;;;3.72;68.16
52719;BME280;38616;42.140;24.760;2022-12-15T03:04:56;99002.56;;;3.91;68.44
52719;BME280;38616;42.140;24.760;2022-12-15T03:07:22;98980.56;;;3.94;68.64
52719;BME280;38616;42.140;24.760;2022-12-15T03:09:53;99002.97;;;4.05;68.26
52719;BME280;38616;42.140;24.760;2022-12-15T03:12:19;99003.84;;;3.44;69.32
52719;BME280;38616;42.140;24.760;2022-12-15T03:14:44;99001.16;;;3.44;70.28
52719;BME280;38616;42.140;24.760;2022-12-15T03:17:09;99012.84;;;3.99;69.10
52719;BME280;38616;42.140;24.760;2022-12-15T03:19:35;98999.78;;;4.08;68.52
52719;BME280;38616;42.140;24.760;2022-12-15T03:22:00;98985.34;;;4.14;68.66
52719;BME280;38616;42.140;24.760;2022-12-15T03:24:26;99003.19;;;4.25;68.13
52719;BME280;38616;42.140;24.760;2022-12-15T03:26:51;98990.59;;;4.31;68.39
52719;BME280;38616;42.140;24.760;2022-12-15T03:29:17;98994.97;;;4.37;67.81
52719;BME280;38616;42.140;24.760;2022-12-15T03:31:43;98995.81;;;4.43;68.33
52719;BME280;38616;42.140;24.760;2022-12-15T03:34:09;98991.31;;;4.49;67.34
52719;BME280;38616;42.140;24.760;2022-12-15T03:36:34;98992.84;;;4.39;67.61
52719;BME280;38616;42.140;24.760;2022-12-15T03:39:00;98996.69;;;4.49;67.79
52719;BME280;38616;42.140;24.760;2022-12-15T03:41:25;98987.50;;;4.44;67.83
52719;BME280;38616;42.140;24.760;2022-12-15T03:43:50;98987.44;;;4.67;67.32
52719;BME280;38616;42.140;24.760;2022-12-15T03:46:16;98985.25;;;4.64;66.90
52719;BME280;38616;42.140;24.760;2022-12-15T03:48:41;98981.53;;;4.70;66.83
52719;BME280;38616;42.140;24.760;2022-12-15T03:51:07;98969.78;;;4.49;66.95
52719;BME280;38616;42.140;24.760;2022-12-15T03:53:32;98968.47;;;4.51;67.07
52719;BME280;38616;42.140;24.760;2022-12-15T03:55:57;98968.91;;;4.43;67.14
52719;BME280;38616;42.140;24.760;2022-12-15T03:58:23;98962.53;;;4.49;67.43
52719;BME280;38616;42.140;24.760;2022-12-15T04:00:48;98958.00;;;4.55;66.98
52719;BME280;38616;42.140;24.760;2022-12-15T04:03:14;98966.13;;;4.60;66.82
52719;BME280;38616;42.140;24.760;2022-12-15T04:05:40;98966.63;;;4.24;67.46
52719;BME280;38616;42.140;24.760;2022-12-15T04:08:05;98968.25;;;4.03;68.23
52719;BME280;38616;42.140;24.760;2022-12-15T04:10:32;98964.53;;;3.82;68.92
52719;BME280;38616;42.140;24.760;2022-12-15T04:13:00;98975.06;;;3.83;68.97
52719;BME280;38616;42.140;24.760;2022-12-15T04:15:26;98955.41;;;3.83;69.00
52719;BME280;38616;42.140;24.760;2022-12-15T04:17:52;98958.63;;;3.80;68.95
52719;BME280;38616;42.140;24.760;2022-12-15T04:20:18;98953.44;;;3.73;69.36
52719;BME280;38616;42.140;24.760;2022-12-15T04:22:45;98959.50;;;3.86;69.17
52719;BME280;38616;42.140;24.760;2022-12-15T04:25:13;98958.84;;;4.01;68.92
52719;BME280;38616;42.140;24.760;2022-12-15T04:27:57;98957.38;;;4.15;67.97
52719;BME280;38616;42.140;24.760;2022-12-15T04:30:45;98948.44;;;4.09;68.49
52719;BME280;38616;42.140;24.760;2022-12-15T04:33:30;98964.72;;;4.25;68.25
52719;BME280;38616;42.140;24.760;2022-12-15T04:36:15;98958.72;;;4.45;67.22
52719;BME280;38616;42.140;24.760;2022-12-15T04:39:00;98949.75;;;4.67;66.21
52719;BME280;38616;42.140;24.760;2022-12-15T04:41:45;98957.28;;;4.65;66.62
52719;BME280;38616;42.140;24.760;2022-12-15T04:44:29;98966.88;;;4.55;66.57
52719;BME280;38616;42.140;24.760;2022-12-15T04:47:13;98973.03;;;4.51;66.84
52719;BME280;38616;42.140;24.760;2022-12-15T04:49:57;98980.72;;;4.37;66.95
52719;BME280;38616;42.140;24.760;2022-12-15T04:52:41;98985.66;;;4.50;67.23
52719;BME280;38616;42.140;24.760;2022-12-15T04:55:25;98982.56;;;4.64;66.96
52719;BME280;38616;42.140;24.760;2022-12-15T04:58:09;98981.88;;;4.46;67.45
52719;BME280;38616;42.140;24.760;2022-12-15T05:00:55;98989.38;;;4.17;68.71
52719;BME280;38616;42.140;24.760;2022-12-15T05:03:40;98985.50;;;4.29;68.69
52719;BME280;38616;42.140;24.760;2022-12-15T05:06:23;99007.84;;;3.63;70.03
52719;BME280;38616;42.140;24.760;2022-12-15T05:09:07;98996.22;;;3.80;71.89
52719;BME280;38616;42.140;24.760;2022-12-15T05:11:51;98987.47;;;2.89;71.53
52719;BME280;38616;42.140;24.760;2022-12-15T05:14:35;98981.34;;;2.42;73.94
52719;BME280;38616;42.140;24.760;2022-12-15T05:17:19;98986.22;;;1.99;75.40
52719;BME280;38616;42.140;24.760;2022-12-15T05:20:03;98976.97;;;2.36;74.51
52719;BME280;38616;42.140;24.760;2022-12-15T05:22:55;98988.72;;;2.18;75.68
52719;BME280;38616;42.140;24.760;2022-12-15T05:25:39;99003.19;;;2.34;76.14
52719;BME280;38616;42.140;24.760;2022-12-15T05:28:23;99003.69;;;2.48;76.49
52719;BME280;38616;42.140;24.760;2022-12-15T05:31:07;99011.25;;;2.34;76.74
52719;BME280;38616;42.140;24.760;2022-12-15T05:33:55;99013.25;;;2.27;76.26
52719;BME280;38616;42.140;24.760;2022-12-15T05:36:21;99021.31;;;2.44;77.13
52719;BME280;38616;42.140;24.760;2022-12-15T05:38:51;99024.47;;;2.41;75.40
52719;BME280;38616;42.140;24.760;2022-12-15T05:41:18;99015.38;;;2.42;76.74
52719;BME280;38616;42.140;24.760;2022-12-15T05:43:44;99023.00;;;2.33;76.46
52719;BME280;38616;42.140;24.760;2022-12-15T05:46:10;99052.63;;;2.55;77.15
52719;BME280;38616;42.140;24.760;2022-12-15T05:48:36;99059.59;;;2.39;77.79
52719;BME280;38616;42.140;24.760;2022-12-15T05:51:04;99051.00;;;2.54;77.51
52719;BME280;38616;42.140;24.760;2022-12-15T05:53:29;99047.44;;;2.48;77.24
52719;BME280;38616;42.140;24.760;2022-12-15T05:56:06;99049.16;;;2.55;75.80
52719;BME280;38616;42.140;24.760;2022-12-15T05:58:31;99052.03;;;2.99;76.61
52719;BME280;38616;42.140;24.760;2022-12-15T06:01:12;99052.63;;;3.58;74.69
52719;BME280;38616;42.140;24.760;2022-12-15T06:03:38;99070.41;;;3.81;73.59
52719;BME280;38616;42.140;24.760;2022-12-15T06:06:05;99079.59;;;4.07;72.44
52719;BME280;38616;42.140;24.760;2022-12-15T06:08:33;99083.91;;;4.08;72.33
52719;BME280;38616;42.140;24.760;2022-12-15T06:10:59;99066.22;;;4.35;71.83
52719;BME280;38616;42.140;24.760;2022-12-15T06:13:26;99057.22;;;4.51;71.00
52719;BME280;38616;42.140;24.760;2022-12-15T06:15:57;99060.22;;;4.82;70.47
52719;BME280;38616;42.140;24.760;2022-12-15T06:18:23;99068.25;;;4.77;69.87
52719;BME280;38616;42.140;24.760;2022-12-15T06:20:59;99071.16;;;4.70;70.22
52719;BME280;38616;42.140;24.760;2022-12-15T06:23:27;99073.75;;;4.60;69.95
52719;BME280;38616;42.140;24.760;2022-12-15T06:25:53;99083.28;;;4.73;70.63
52719;BME280;38616;42.140;24.760;2022-12-15T06:28:19;99080.75;;;4.88;69.51
52719;BME280;38616;42.140;24.760;2022-12-15T06:30:52;99088.16;;;4.76;69.65
52719;BME280;38616;42.140;24.760;2022-12-15T06:33:19;99087.88;;;4.72;70.20
52719;BME280;38616;42.140;24.760;2022-12-15T06:35:45;99085.50;;;4.81;70.34
52719;BME280;38616;42.140;24.760;2022-12-15T06:38:10;99097.50;;;4.96;69.37
52719;BME280;38616;42.140;24.760;2022-12-15T06:40:37;99089.84;;;4.82;69.76
52719;BME280;38616;42.140;24.760;2022-12-15T06:43:02;99091.09;;;5.02;69.83
52719;BME280;38616;42.140;24.760;2022-12-15T06:45:28;99098.72;;;5.10;69.48
52719;BME280;38616;42.140;24.760;2022-12-15T06:47:53;99090.47;;;5.27;69.18
52719;BME280;38616;42.140;24.760;2022-12-15T06:50:19;99102.09;;;5.28;69.36
52719;BME280;38616;42.140;24.760;2022-12-15T06:52:45;99095.59;;;5.24;68.95
52719;BME280;38616;42.140;24.760;2022-12-15T06:55:10;99105.44;;;5.13;69.42
52719;BME280;38616;42.140;24.760;2022-12-15T06:57:35;99100.53;;;5.05;70.01
52719;BME280;38616;42.140;24.760;2022-12-15T07:00:03;99105.63;;;5.01;70.17
52719;BME280;38616;42.140;24.760;2022-12-15T07:02:28;99113.56;;;5.18;69.77
52719;BME280;38616;42.140;24.760;2022-12-15T07:04:57;99097.78;;;5.32;69.28
52719;BME280;38616;42.140;24.760;2022-12-15T07:07:22;99097.75;;;5.27;69.73
52719;BME280;38616;42.140;24.760;2022-12-15T07:09:48;99094.13;;;5.48;69.04
52719;BME280;38616;42.140;24.760;2022-12-15T07:12:13;99094.41;;;5.47;68.96
52719;BME280;38616;42.140;24.760;2022-12-15T07:14:38;99082.28;;;5.50;69.16
52719;BME280;38616;42.140;24.760;2022-12-15T07:17:04;99060.88;;;5.75;68.78
52719;BME280;38616;42.140;24.760;2022-12-15T07:19:29;99075.16;;;5.71;68.64
52719;BME280;38616;42.140;24.760;2022-12-15T07:21:55;99118.66;;;5.47;68.40
52719;BME280;38616;42.140;24.760;2022-12-15T07:24:22;99112.88;;;5.00;70.76
52719;BME280;38616;42.140;24.760;2022-12-15T07:26:47;99121.50;;;5.30;70.65
52719;BME280;38616;42.140;24.760;2022-12-15T07:29:13;99116.56;;;5.54;69.79
52719;BME280;38616;42.140;24.760;2022-12-15T07:31:38;99134.22;;;5.40;69.21
52719;BME280;38616;42.140;24.760;2022-12-15T07:34:04;99136.81;;;5.62;69.33
52719;BME280;38616;42.140;24.760;2022-12-15T07:36:29;99141.16;;;5.68;69.22
52719;BME280;38616;42.140;24.760;2022-12-15T07:38:58;99123.84;;;5.59;69.05
52719;BME280;38616;42.140;24.760;2022-12-15T07:41:25;99130.81;;;5.55;70.10
52719;BME280;38616;42.140;24.760;2022-12-15T07:43:51;99147.38;;;5.36;70.95
52719;BME280;38616;42.140;24.760;2022-12-15T07:46:17;99159.56;;;5.44;71.61
52719;BME280;38616;42.140;24.760;2022-12-15T07:48:43;99147.28;;;5.96;70.26
52719;BME280;38616;42.140;24.760;2022-12-15T07:51:09;99153.41;;;6.29;69.02
52719;BME280;38616;42.140;24.760;2022-12-15T07:53:35;99141.06;;;6.49;68.86
52719;BME280;38616;42.140;24.760;2022-12-15T07:56:02;99142.09;;;6.38;68.76
52719;BME280;38616;42.140;24.760;2022-12-15T07:58:28;99131.78;;;6.24;68.94
52719;BME280;38616;42.140;24.760;2022-12-15T08:01:01;99128.31;;;5.81;70.72
52719;BME280;38616;42.140;24.760;2022-12-15T08:03:28;99147.50;;;5.89;71.19
52719;BME280;38616;42.140;24.760;2022-12-15T08:05:54;99134.81;;;5.85;71.61
52719;BME280;38616;42.140;24.760;2022-12-15T08:08:20;99129.00;;;6.03;70.81
52719;BME280;38616;42.140;24.760;2022-12-15T08:10:46;99145.13;;;6.46;69.59
52719;BME280;38616;42.140;24.760;2022-12-15T08:13:12;99143.84;;;6.70;68.72
52719;BME280;38616;42.140;24.760;2022-12-15T08:15:38;99141.19;;;6.80;68.29
52719;BME280;38616;42.140;24.760;2022-12-15T08:18:05;99145.38;;;6.50;69.17
52719;BME280;38616;42.140;24.760;2022-12-15T08:20:32;99140.50;;;6.42;70.03
52719;BME280;38616;42.140;24.760;2022-12-15T08:22:57;99137.63;;;6.69;68.89
52719;BME280;38616;42.140;24.760;2022-12-15T08:25:24;99142.16;;;6.48;69.84
52719;BME280;38616;42.140;24.760;2022-12-15T08:27:53;99131.78;;;6.24;71.17
52719;BME280;38616;42.140;24.760;2022-12-15T08:30:19;99147.94;;;6.19;71.84
52719;BME280;38616;42.140;24.760;2022-12-15T08:32:44;99157.22;;;5.96;72.74
52719;BME280;38616;42.140;24.760;2022-12-15T08:35:10;99150.63;;;6.09;72.95
52719;BME280;38616;42.140;24.760;2022-12-15T08:37:36;99148.59;;;6.42;71.77
52719;BME280;38616;42.140;24.760;2022-12-15T08:40:02;99147.59;;;6.58;70.36
52719;BME280;38616;42.140;24.760;2022-12-15T08:42:32;99150.81;;;6.60;70.61
52719;BME280;38616;42.140;24.760;2022-12-15T08:44:57;99143.81;;;6.59;71.29
52719;BME280;38616;42.140;24.760;2022-12-15T08:47:23;99160.03;;;6.70;70.46
52719;BME280;38616;42.140;24.760;2022-12-15T08:49:48;99162.75;;;6.75;70.25
52719;BME280;38616;42.140;24.760;2022-12-15T08:52:14;99159.31;;;7.00;69.86
52719;BME280;38616;42.140;24.760;2022-12-15T08:54:39;99153.66;;;7.22;69.03
52719;BME280;38616;42.140;24.760;2022-12-15T08:57:05;99147.69;;;7.20;68.42
52719;BME280;38616;42.140;24.760;2022-12-15T08:59:30;99153.41;;;7.45;67.57
52719;BME280;38616;42.140;24.760;2022-12-15T09:01:55;99151.25;;;7.26;68.54
52719;BME280;38616;42.140;24.760;2022-12-15T09:04:21;99137.19;;;7.19;68.82
52719;BME280;38616;42.140;24.760;2022-12-15T09:06:46;99140.69;;;7.19;69.15
52719;BME280;38616;42.140;24.760;2022-12-15T09:09:12;99146.88;;;7.09;68.84
52719;BME280;38616;42.140;24.760;2022-12-15T09:11:38;99142.56;;;7.14;68.52
52719;BME280;38616;42.140;24.760;2022-12-15T09:14:05;99150.91;;;6.91;69.15
52719;BME280;38616;42.140;24.760;2022-12-15T09:16:30;99146.63;;;6.95;69.47
52719;BME280;38616;42.140;24.760;2022-12-15T09:18:58;99153.94;;;7.31;68.08
52719;BME280;38616;42.140;24.760;2022-12-15T09:21:25;99154.75;;;7.68;67.60
52719;BME280;38616;42.140;24.760;2022-12-15T09:23:54;99143.38;;;7.30;67.44
52719;BME280;38616;42.140;24.760;2022-12-15T09:26:21;99147.97;;;7.55;67.41
52719;BME280;38616;42.140;24.760;2022-12-15T09:28:47;99150.41;;;7.72;66.67
52719;BME280;38616;42.140;24.760;2022-12-15T09:31:17;99147.41;;;7.79;66.37
52719;BME280;38616;42.140;24.760;2022-12-15T09:33:46;99139.88;;;7.65;66.78
52719;BME280;38616;42.140;24.760;2022-12-15T09:36:12;99134.75;;;7.38;67.74
52719;BME280;38616;42.140;24.760;2022-12-15T09:38:39;99145.03;;;7.57;67.33
52719;BME280;38616;42.140;24.760;2022-12-15T09:41:11;99139.84;;;7.81;66.56
52719;BME280;38616;42.140;24.760;2022-12-15T09:46:49;99139.78;;;8.12;66.26
52719;BME280;38616;42.140;24.760;2022-12-15T09:49:47;99147.28;;;8.36;65.28
52719;BME280;38616;42.140;24.760;2022-12-15T09:52:19;99148.59;;;8.43;64.80
52719;BME280;38616;42.140;24.760;2022-12-15T09:54:46;99156.97;;;8.47;64.75
52719;BME280;38616;42.140;24.760;2022-12-15T09:57:25;99153.53;;;8.21;64.96
52719;BME280;38616;42.140;24.760;2022-12-15T10:00:03;99148.13;;;8.21;66.35
52719;BME280;38616;42.140;24.760;2022-12-15T10:08:18;99143.13;;;8.64;64.11
52719;BME280;38616;42.140;24.760;2022-12-15T10:11:25;99147.97;;;8.72;63.94
52719;BME280;38616;42.140;24.760;2022-12-15T10:14:15;99163.31;;;8.06;66.48
52719;BME280;38616;42.140;24.760;2022-12-15T10:16:53;99155.69;;;8.29;65.86
52719;BME280;38616;42.140;24.760;2022-12-15T10:19:38;99143.16;;;8.59;64.47
52719;BME280;38616;42.140;24.760;2022-12-15T10:22:12;99142.63;;;8.57;65.00
52719;BME280;38616;42.140;24.760;2022-12-15T10:24:38;99136.84;;;8.74;64.02
52719;BME280;38616;42.140;24.760;2022-12-15T10:29:43;99134.22;;;9.04;63.39
52719;BME280;38616;42.140;24.760;2022-12-15T10:32:22;99136.91;;;9.09;63.24
52719;BME280;38616;42.140;24.760;2022-12-15T10:34:49;99118.97;;;9.13;63.00
52719;BME280;38616;42.140;24.760;2022-12-15T10:37:19;99111.06;;;9.22;62.88
52719;BME280;38616;42.140;24.760;2022-12-15T10:39:49;99116.47;;;9.27;62.66
52719;BME280;38616;42.140;24.760;2022-12-15T10:42:23;99120.19;;;9.31;62.93
52719;BME280;38616;42.140;24.760;2022-12-15T10:44:51;99116.25;;;9.18;63.06
52719;BME280;38616;42.140;24.760;2022-12-15T10:49:46;99116.47;;;9.56;62.26
52719;BME280;38616;42.140;24.760;2022-12-15T10:52:20;99122.13;;;9.60;61.43
52719;BME280;38616;42.140;24.760;2022-12-15T10:54:48;99132.47;;;9.23;63.08
52719;BME280;38616;42.140;24.760;2022-12-15T10:57:28;99142.75;;;9.26;63.11
52719;BME280;38616;42.140;24.760;2022-12-15T11:02:42;99142.44;;;9.28;63.45
52719;BME280;38616;42.140;24.760;2022-12-15T11:10:25;99148.84;;;9.72;61.96
52719;BME280;38616;42.140;24.760;2022-12-15T11:13:20;99139.53;;;9.83;61.58
52719;BME280;38616;42.140;24.760;2022-12-15T11:15:50;99141.09;;;9.89;61.77
52719;BME280;38616;42.140;24.760;2022-12-15T11:23:55;99160.50;;;10.02;61.17
52719;BME280;38616;42.140;24.760;2022-12-15T11:30:31;99153.47;;;10.25;61.07
52719;BME280;38616;42.140;24.760;2022-12-15T11:32:33;99151.38;;;10.17;61.23
52719;BME280;38616;42.140;24.760;2022-12-15T11:34:59;99146.72;;;10.23;61.26
52719;BME280;38616;42.140;24.760;2022-12-15T11:37:35;99149.34;;;10.33;60.83
52719;BME280;38616;42.140;24.760;2022-12-15T11:42:50;99147.84;;;10.46;60.34
52719;BME280;38616;42.140;24.760;2022-12-15T11:48:15;99151.53;;;10.55;60.84
52719;BME280;38616;42.140;24.760;2022-12-15T11:51:16;99152.88;;;10.58;60.39
52719;BME280;38616;42.140;24.760;2022-12-15T11:56:26;99161.59;;;10.55;60.18
52719;BME280;38616;42.140;24.760;2022-12-15T12:10:11;99154.72;;;10.82;59.97
52719;BME280;38616;42.140;24.760;2022-12-15T12:12:52;99160.44;;;10.99;59.68
52719;BME280;38616;42.140;24.760;2022-12-15T12:15:41;99165.31;;;11.02;59.86
52719;BME280;38616;42.140;24.760;2022-12-15T12:20:55;99161.34;;;10.94;59.42
52719;BME280;38616;42.140;24.760;2022-12-15T12:23:28;99150.41;;;11.00;59.31
52719;BME280;38616;42.140;24.760;2022-12-15T12:26:01;99163.22;;;11.13;59.08
52719;BME280;38616;42.140;24.760;2022-12-15T12:28:48;99170.22;;;11.00;59.03
52719;BME280;38616;42.140;24.760;2022-12-15T12:31:46;99173.31;;;11.13;59.39
52719;BME280;38616;42.140;24.760;2022-12-15T12:34:21;99172.66;;;11.21;58.72
52719;BME280;38616;42.140;24.760;2022-12-15T12:36:51;99168.22;;;11.06;58.96
52719;BME280;38616;42.140;24.760;2022-12-15T12:39:20;99184.41;;;10.97;59.25
52719;BME280;38616;42.140;24.760;2022-12-15T12:42:05;99170.28;;;10.95;59.23
52719;BME280;38616;42.140;24.760;2022-12-15T12:44:36;99179.47;;;11.18;59.00
52719;BME280;38616;42.140;24.760;2022-12-15T12:47:12;99180.66;;;11.12;59.10
52719;BME280;38616;42.140;24.760;2022-12-15T12:49:51;99191.31;;;11.08;59.39
52719;BME280;38616;42.140;24.760;2022-12-15T12:52:24;99189.34;;;11.33;58.54
52719;BME280;38616;42.140;24.760;2022-12-15T12:54:55;99188.66;;;11.22;58.68
52719;BME280;38616;42.140;24.760;2022-12-15T12:57:34;99189.47;;;11.23;58.61
52719;BME280;38616;42.140;24.760;2022-12-15T13:00:19;99193.28;;;11.41;58.63
52719;BME280;38616;42.140;24.760;2022-12-15T13:05:33;99204.38;;;11.45;58.34
52719;BME280;38616;42.140;24.760;2022-12-15T13:10:29;99212.03;;;11.43;58.51
52719;BME280;38616;42.140;24.760;2022-12-15T13:15:47;99210.03;;;10.91;59.41
52719;BME280;38616;42.140;24.760;2022-12-15T13:18:18;99226.84;;;10.93;59.53
52719;BME280;38616;42.140;24.760;2022-12-15T13:20:45;99237.66;;;11.17;59.26
52719;BME280;38616;42.140;24.760;2022-12-15T13:36:08;99248.84;;;10.72;61.40
52719;BME280;38616;42.140;24.760;2022-12-15T13:38:52;99249.88;;;11.01;61.02
52719;BME280;38616;42.140;24.760;2022-12-15T13:41:22;99245.88;;;11.12;60.58
52719;BME280;38616;42.140;24.760;2022-12-15T13:43:50;99236.34;;;11.15;60.40
52719;BME280;38616;42.140;24.760;2022-12-15T13:46:30;99250.47;;;11.17;60.58
52719;BME280;38616;42.140;24.760;2022-12-15T13:49:07;99253.84;;;11.28;60.35
52719;BME280;38616;42.140;24.760;2022-12-15T13:51:41;99252.19;;;10.88;61.19
52719;BME280;38616;42.140;24.760;2022-12-15T14:02:43;99263.91;;;10.84;62.17
52719;BME280;38616;42.140;24.760;2022-12-15T14:05:14;99257.97;;;10.82;62.01
52719;BME280;38616;42.140;24.760;2022-12-15T14:07:44;99263.72;;;10.56;62.94
52719;BME280;38616;42.140;24.760;2022-12-15T14:10:22;99257.28;;;10.71;62.59
52719;BME280;38616;42.140;24.760;2022-12-15T14:12:50;99264.91;;;10.69;62.84
52719;BME280;38616;42.140;24.760;2022-12-15T14:15:18;99267.69;;;10.63;63.15
52719;BME280;38616;42.140;24.760;2022-12-15T14:17:49;99272.91;;;10.60;62.77
52719;BME280;38616;42.140;24.760;2022-12-15T14:20:23;99278.44;;;10.49;63.41
52719;BME280;38616;42.140;24.760;2022-12-15T14:22:49;99277.44;;;10.40;63.69
52719;BME280;38616;42.140;24.760;2022-12-15T14:25:28;99279.56;;;10.14;65.14
52719;BME280;38616;42.140;24.760;2022-12-15T14:27:54;99279.56;;;10.14;65.72
52719;BME280;38616;42.140;24.760;2022-12-15T14:30:29;99290.66;;;10.17;65.84
52719;BME280;38616;42.140;24.760;2022-12-15T14:33:12;99294.00;;;10.04;65.93
52719;BME280;38616;42.140;24.760;2022-12-15T14:35:47;99293.94;;;10.14;65.23
52719;BME280;38616;42.140;24.760;2022-12-15T14:38:15;99293.41;;;10.12;65.74
52719;BME280;38616;42.140;24.760;2022-12-15T14:40:42;99290.25;;;10.29;65.21
52719;BME280;38616;42.140;24.760;2022-12-15T14:43:16;99305.34;;;10.46;64.68
52719;BME280;38616;42.140;24.760;2022-12-15T14:45:43;99302.75;;;10.30;65.38
52719;BME280;38616;42.140;24.760;2022-12-15T14:48:08;99309.50;;;10.03;65.98
52719;BME280;38616;42.140;24.760;2022-12-15T14:50:34;99317.69;;;9.98;66.51
52719;BME280;38616;42.140;24.760;2022-12-15T14:53:14;99321.72;;;10.01;66.56
52719;BME280;38616;42.140;24.760;2022-12-15T14:55:41;99324.25;;;9.92;66.86
52719;BME280;38616;42.140;24.760;2022-12-15T14:58:28;99327.06;;;10.11;66.40
52719;BME280;38616;42.140;24.760;2022-12-15T15:00:54;99326.13;;;9.91;67.01
52719;BME280;38616;42.140;24.760;2022-12-15T15:03:25;99330.13;;;10.04;67.01
52719;BME280;38616;42.140;24.760;2022-12-15T15:05:57;99328.69;;;10.12;66.45
52719;BME280;38616;42.140;24.760;2022-12-15T15:08:29;99333.66;;;10.00;66.78
52719;BME280;38616;42.140;24.760;2022-12-15T15:10:59;99333.03;;;10.13;66.40